sensor_id;sensor_type;location;lat;lon;timestamp;temperature;humidity
61339;DHT22;47213;52.362;4.606;2023-03-05T00:02:44;7.40;92.10
61339;DHT22;47213;52.362;4.606;2023-03-05T00:12:44;7.30;91.80
61339;DHT22;47213;52.362;4.606;2023-03-05T00:17:44;7.00;92.30
61339;DHT22;47213;52.362;4.606;2023-03-05T00:22:44;6.80;93.20
61339;DHT22;47213;52.362;4.606;2023-03-05T00:27:44;6.70;93.70
61339;DHT22;47213;52.362;4.606;2023-03-05T00:37:44;6.60;95.10
61339;DHT22;47213;52.362;4.606;2023-03-05T00:42:44;6.70;95.50
61339;DHT22;47213;52.362;4.606;2023-03-05T01:02:44;6.80;97.70
61339;DHT22;47213;52.362;4.606;2023-03-05T01:07:44;6.90;97.90
61339;DHT22;47213;52.362;4.606;2023-03-05T01:12:44;7.10;98.70
61339;DHT22;47213;52.362;4.606;2023-03-05T01:17:44;7.00;99.00
61339;DHT22;47213;52.362;4.606;2023-03-05T01:27:44;6.70;99.90
61339;DHT22;47213;52.362;4.606;2023-03-05T01:32:44;6.60;99.90
61339;DHT22;47213;52.362;4.606;2023-03-05T01:42:46;6.50;99.90
61339;DHT22;47213;52.362;4.606;2023-03-05T01:47:44;6.40;99.90
61339;DHT22;47213;52.362;4.606;2023-03-05T01:52:45;6.30;99.90
61339;DHT22;47213;52.362;4.606;2023-03-05T01:57:45;6.40;99.90
61339;DHT22;47213;52.362;4.606;2023-03-05T02:22:44;6.50;99.90
61339;DHT22;47213;52.362;4.606;2023-03-05T02:32:44;6.60;99.90
61339;DHT22;47213;52.362;4.606;2023-03-05T02:42:44;6.70;99.90
61339;DHT22;47213;52.362;4.606;2023-03-05T02:47:44;6.80;99.90
61339;DHT22;47213;52.362;4.606;2023-03-05T02:52:44;6.70;99.90
61339;DHT22;47213;52.362;4.606;2023-03-05T03:07:44;6.80;99.90
61339;DHT22;47213;52.362;4.606;2023-03-05T03:17:44;6.90;99.90
61339;DHT22;47213;52.362;4.606;2023-03-05T03:42:44;6.80;99.90
61339;DHT22;47213;52.362;4.606;2023-03-05T04:22:44;6.70;99.90
61339;DHT22;47213;52.362;4.606;2023-03-05T04:32:44;6.80;99.90
61339;DHT22;47213;52.362;4.606;2023-03-05T04:37:44;6.70;99.90
61339;DHT22;47213;52.362;4.606;2023-03-05T04:42:44;6.60;99.90
61339;DHT22;47213;52.362;4.606;2023-03-05T04:47:44;6.70;99.90
61339;DHT22;47213;52.362;4.606;2023-03-05T04:52:44;6.60;99.90
61339;DHT22;47213;52.362;4.606;2023-03-05T05:17:45;6.70;99.90
61339;DHT22;47213;52.362;4.606;2023-03-05T05:22:45;6.60;99.90
61339;DHT22;47213;52.362;4.606;2023-03-05T05:52:45;6.50;99.90
61339;DHT22;47213;52.362;4.606;2023-03-05T06:12:45;6.40;99.90
61339;DHT22;47213;52.362;4.606;2023-03-05T06:17:45;6.60;99.90
61339;DHT22;47213;52.362;4.606;2023-03-05T06:32:45;6.50;99.90
61339;DHT22;47213;52.362;4.606;2023-03-05T06:37:45;6.60;99.90
61339;DHT22;47213;52.362;4.606;2023-03-05T06:47:45;6.70;99.90
61339;DHT22;47213;52.362;4.606;2023-03-05T06:52:47;6.60;99.90
61339;DHT22;47213;52.362;4.606;2023-03-05T06:57:45;6.50;99.90
61339;DHT22;47213;52.362;4.606;2023-03-05T07:02:45;6.40;99.90
61339;DHT22;47213;52.362;4.606;2023-03-05T07:12:45;6.30;99.90
61339;DHT22;47213;52.362;4.606;2023-03-05T07:22:45;6.40;99.90
61339;DHT22;47213;52.362;4.606;2023-03-05T07:27:45;6.50;99.90
61339;DHT22;47213;52.362;4.606;2023-03-05T07:32:45;6.70;99.90
61339;DHT22;47213;52.362;4.606;2023-03-05T07:47:45;6.90;99.90
61339;DHT22;47213;52.362;4.606;2023-03-05T07:52:45;7.00;99.90
61339;DHT22;47213;52.362;4.606;2023-03-05T07:57:45;7.10;99.90
61339;DHT22;47213;52.362;4.606;2023-03-05T08:02:45;7.30;99.90
61339;DHT22;47213;52.362;4.606;2023-03-05T08:07:45;7.40;99.90
61339;DHT22;47213;52.362;4.606;2023-03-05T08:12:45;7.60;99.90
61339;DHT22;47213;52.362;4.606;2023-03-05T08:17:45;7.70;99.90
61339;DHT22;47213;52.362;4.606;2023-03-05T08:22:45;7.60;99.90
61339;DHT22;47213;52.362;4.606;2023-03-05T08:27:45;7.80;98.90
61339;DHT22;47213;52.362;4.606;2023-03-05T08:32:45;7.90;99.20
61339;DHT22;47213;52.362;4.606;2023-03-05T08:42:45;7.80;97.40
61339;DHT22;47213;52.362;4.606;2023-03-05T08:52:45;7.50;96.80
61339;DHT22;47213;52.362;4.606;2023-03-05T08:57:45;7.60;99.20
61339;DHT22;47213;52.362;4.606;2023-03-05T09:02:45;7.10;99.90
61339;DHT22;47213;52.362;4.606;2023-03-05T09:07:45;6.90;99.90
61339;DHT22;47213;52.362;4.606;2023-03-05T09:12:45;7.00;99.90
61339;DHT22;47213;52.362;4.606;2023-03-05T09:17:45;7.40;99.90
61339;DHT22;47213;52.362;4.606;2023-03-05T09:22:45;7.50;99.90
61339;DHT22;47213;52.362;4.606;2023-03-05T09:27:45;7.40;99.90
61339;DHT22;47213;52.362;4.606;2023-03-05T09:32:45;7.50;99.90
61339;DHT22;47213;52.362;4.606;2023-03-05T09:37:45;7.70;99.90
61339;DHT22;47213;52.362;4.606;2023-03-05T09:52:46;9.20;99.60
61339;DHT22;47213;52.362;4.606;2023-03-05T10:02:47;9.30;93.10
61339;DHT22;47213;52.362;4.606;2023-03-05T10:12:54;9.20;90.70
61339;DHT22;47213;52.362;4.606;2023-03-05T10:17:56;9.60;85.90
61339;DHT22;47213;52.362;4.606;2023-03-05T10:27:47;10.20;83.60
61339;DHT22;47213;52.362;4.606;2023-03-05T10:42:51;9.90;76.40
61339;DHT22;47213;52.362;4.606;2023-03-05T10:52:46;9.70;77.50
61339;DHT22;47213;52.362;4.606;2023-03-05T10:57:45;10.10;78.60
61339;DHT22;47213;52.362;4.606;2023-03-05T11:03:02;10.40;76.40
61339;DHT22;47213;52.362;4.606;2023-03-05T11:07:45;10.50;73.90
61339;DHT22;47213;52.362;4.606;2023-03-05T11:12:45;10.40;71.40
61339;DHT22;47213;52.362;4.606;2023-03-05T11:27:48;11.80;71.20
61339;DHT22;47213;52.362;4.606;2023-03-05T11:32:45;12.60;67.20
61339;DHT22;47213;52.362;4.606;2023-03-05T11:37:45;13.30;60.40
61339;DHT22;47213;52.362;4.606;2023-03-05T11:42:48;12.40;57.20
61339;DHT22;47213;52.362;4.606;2023-03-05T11:47:48;12.10;55.60
61339;DHT22;47213;52.362;4.606;2023-03-05T11:52:47;11.20;60.30
61339;DHT22;47213;52.362;4.606;2023-03-05T11:57:50;12.10;62.50
61339;DHT22;47213;52.362;4.606;2023-03-05T12:02:47;12.60;58.50
61339;DHT22;47213;52.362;4.606;2023-03-05T12:12:47;13.30;56.80
61339;DHT22;47213;52.362;4.606;2023-03-05T12:22:46;13.60;48.60
61339;DHT22;47213;52.362;4.606;2023-03-05T12:27:46;14.10;48.30
61339;DHT22;47213;52.362;4.606;2023-03-05T12:47:46;13.90;47.20
61339;DHT22;47213;52.362;4.606;2023-03-05T12:52:46;14.10;46.00
61339;DHT22;47213;52.362;4.606;2023-03-05T12:57:46;14.80;45.20
61339;DHT22;47213;52.362;4.606;2023-03-05T13:02:47;14.60;43.60
61339;DHT22;47213;52.362;4.606;2023-03-05T13:07:46;13.10;41.30
61339;DHT22;47213;52.362;4.606;2023-03-05T13:12:48;12.40;43.00
61339;DHT22;47213;52.362;4.606;2023-03-05T13:18:01;11.80;43.70
61339;DHT22;47213;52.362;4.606;2023-03-05T13:22:46;11.60;46.10
61339;DHT22;47213;52.362;4.606;2023-03-05T13:32:48;11.10;49.00
61339;DHT22;47213;52.362;4.606;2023-03-05T13:37:46;10.70;48.60
61339;DHT22;47213;52.362;4.606;2023-03-05T13:42:46;10.80;52.90
61339;DHT22;47213;52.362;4.606;2023-03-05T13:48:03;10.00;50.80
61339;DHT22;47213;52.362;4.606;2023-03-05T13:52:46;10.40;52.70
61339;DHT22;47213;52.362;4.606;2023-03-05T13:57:48;10.70;52.50
61339;DHT22;47213;52.362;4.606;2023-03-05T14:02:46;10.60;50.20
61339;DHT22;47213;52.362;4.606;2023-03-05T14:07:47;10.70;50.20
61339;DHT22;47213;52.362;4.606;2023-03-05T14:12:46;10.80;49.70
61339;DHT22;47213;52.362;4.606;2023-03-05T14:17:46;10.60;50.30
61339;DHT22;47213;52.362;4.606;2023-03-05T14:22:46;10.70;49.90
61339;DHT22;47213;52.362;4.606;2023-03-05T14:27:46;11.00;51.60
61339;DHT22;47213;52.362;4.606;2023-03-05T14:32:46;10.70;51.60
61339;DHT22;47213;52.362;4.606;2023-03-05T14:37:47;10.10;52.90
61339;DHT22;47213;52.362;4.606;2023-03-05T14:47:46;10.70;48.30
61339;DHT22;47213;52.362;4.606;2023-03-05T14:52:47;10.20;47.60
61339;DHT22;47213;52.362;4.606;2023-03-05T14:57:46;10.40;50.10
61339;DHT22;47213;52.362;4.606;2023-03-05T15:02:46;9.90;49.80
61339;DHT22;47213;52.362;4.606;2023-03-05T15:07:46;10.30;48.70
61339;DHT22;47213;52.362;4.606;2023-03-05T15:17:47;10.00;51.00
61339;DHT22;47213;52.362;4.606;2023-03-05T15:22:46;9.50;52.50
61339;DHT22;47213;52.362;4.606;2023-03-05T15:27:46;9.10;55.50
61339;DHT22;47213;52.362;4.606;2023-03-05T15:32:46;8.50;65.60
61339;DHT22;47213;52.362;4.606;2023-03-05T15:37:46;8.10;71.60
61339;DHT22;47213;52.362;4.606;2023-03-05T15:57:47;8.20;74.40
61339;DHT22;47213;52.362;4.606;2023-03-05T16:02:46;8.40;70.30
61339;DHT22;47213;52.362;4.606;2023-03-05T16:17:47;8.30;68.80
61339;DHT22;47213;52.362;4.606;2023-03-05T16:22:46;8.40;68.90
61339;DHT22;47213;52.362;4.606;2023-03-05T16:27:46;8.10;70.40
61339;DHT22;47213;52.362;4.606;2023-03-05T16:32:46;8.00;73.10
61339;DHT22;47213;52.362;4.606;2023-03-05T16:37:46;8.10;75.30
61339;DHT22;47213;52.362;4.606;2023-03-05T16:42:46;8.20;75.40
61339;DHT22;47213;52.362;4.606;2023-03-05T16:47:46;8.10;76.00
61339;DHT22;47213;52.362;4.606;2023-03-05T16:52:46;8.00;74.90
61339;DHT22;47213;52.362;4.606;2023-03-05T16:57:46;8.40;77.80
61339;DHT22;47213;52.362;4.606;2023-03-05T17:02:46;8.50;75.10
61339;DHT22;47213;52.362;4.606;2023-03-05T17:27:46;8.60;71.00
61339;DHT22;47213;52.362;4.606;2023-03-05T17:32:46;8.50;70.10
61339;DHT22;47213;52.362;4.606;2023-03-05T17:37:46;8.40;72.40
61339;DHT22;47213;52.362;4.606;2023-03-05T17:42:46;8.30;74.80
61339;DHT22;47213;52.362;4.606;2023-03-05T17:47:46;8.20;74.90
61339;DHT22;47213;52.362;4.606;2023-03-05T17:52:46;7.80;76.00
61339;DHT22;47213;52.362;4.606;2023-03-05T17:57:46;7.50;74.60
61339;DHT22;47213;52.362;4.606;2023-03-05T18:07:47;7.60;79.60
61339;DHT22;47213;52.362;4.606;2023-03-05T18:17:46;7.80;84.00
61339;DHT22;47213;52.362;4.606;2023-03-05T18:22:46;7.90;86.10
61339;DHT22;47213;52.362;4.606;2023-03-05T18:27:47;7.70;88.60
61339;DHT22;47213;52.362;4.606;2023-03-05T18:32:47;7.30;86.60
61339;DHT22;47213;52.362;4.606;2023-03-05T18:37:47;7.10;89.30
61339;DHT22;47213;52.362;4.606;2023-03-05T18:42:47;7.00;92.10
61339;DHT22;47213;52.362;4.606;2023-03-05T18:47:47;6.50;91.80
61339;DHT22;47213;52.362;4.606;2023-03-05T18:52:47;6.40;92.20
61339;DHT22;47213;52.362;4.606;2023-03-05T18:57:47;6.10;94.50
61339;DHT22;47213;52.362;4.606;2023-03-05T19:02:47;6.00;94.90
61339;DHT22;47213;52.362;4.606;2023-03-05T19:07:47;6.30;97.60
61339;DHT22;47213;52.362;4.606;2023-03-05T19:12:47;6.20;97.30
61339;DHT22;47213;52.362;4.606;2023-03-05T19:27:47;6.10;96.90
61339;DHT22;47213;52.362;4.606;2023-03-05T19:37:47;6.40;99.10
61339;DHT22;47213;52.362;4.606;2023-03-05T19:42:47;6.30;99.30
61339;DHT22;47213;52.362;4.606;2023-03-05T19:52:47;6.00;99.90
61339;DHT22;47213;52.362;4.606;2023-03-05T19:57:47;6.10;99.80
61339;DHT22;47213;52.362;4.606;2023-03-05T20:02:47;5.90;99.90
61339;DHT22;47213;52.362;4.606;2023-03-05T20:07:47;6.10;99.90
61339;DHT22;47213;52.362;4.606;2023-03-05T20:12:47;6.20;99.90
61339;DHT22;47213;52.362;4.606;2023-03-05T20:17:47;6.10;99.90
61339;DHT22;47213;52.362;4.606;2023-03-05T20:22:47;5.90;99.70
61339;DHT22;47213;52.362;4.606;2023-03-05T20:27:47;6.00;99.20
61339;DHT22;47213;52.362;4.606;2023-03-05T20:32:47;6.20;99.90
61339;DHT22;47213;52.362;4.606;2023-03-05T20:42:47;6.10;98.70
61339;DHT22;47213;52.362;4.606;2023-03-05T20:47:47;6.20;98.90
61339;DHT22;47213;52.362;4.606;2023-03-05T20:52:47;6.50;99.60
61339;DHT22;47213;52.362;4.606;2023-03-05T20:57:47;6.70;99.30
61339;DHT22;47213;52.362;4.606;2023-03-05T21:17:47;6.60;97.60
61339;DHT22;47213;52.362;4.606;2023-03-05T21:22:47;6.50;96.80
61339;DHT22;47213;52.362;4.606;2023-03-05T21:32:47;6.30;95.90
61339;DHT22;47213;52.362;4.606;2023-03-05T21:37:47;6.20;96.60
61339;DHT22;47213;52.362;4.606;2023-03-05T21:42:47;6.10;97.10
61339;DHT22;47213;52.362;4.606;2023-03-05T21:47:47;5.80;97.80
61339;DHT22;47213;52.362;4.606;2023-03-05T21:52:47;5.60;98.30
61339;DHT22;47213;52.362;4.606;2023-03-05T21:57:47;5.50;99.30
61339;DHT22;47213;52.362;4.606;2023-03-05T22:02:47;5.60;99.60
61339;DHT22;47213;52.362;4.606;2023-03-05T22:12:50;5.50;99.90
61339;DHT22;47213;52.362;4.606;2023-03-05T22:17:47;5.60;99.90
61339;DHT22;47213;52.362;4.606;2023-03-05T22:27:47;5.70;99.90
61339;DHT22;47213;52.362;4.606;2023-03-05T22:32:47;5.60;99.90
61339;DHT22;47213;52.362;4.606;2023-03-05T22:42:47;5.50;99.90
61339;DHT22;47213;52.362;4.606;2023-03-05T22:57:47;5.30;99.90
61339;DHT22;47213;52.362;4.606;2023-03-05T23:02:47;5.20;99.90
61339;DHT22;47213;52.362;4.606;2023-03-05T23:07:47;5.30;99.90
61339;DHT22;47213;52.362;4.606;2023-03-05T23:17:47;5.40;99.90
61339;DHT22;47213;52.362;4.606;2023-03-05T23:22:48;5.30;99.90
61339;DHT22;47213;52.362;4.606;2023-03-05T23:27:48;5.40;99.90
61339;DHT22;47213;52.362;4.606;2023-03-05T23:37:48;5.70;99.90
61339;DHT22;47213;52.362;4.606;2023-03-05T23:42:47;5.50;99.90
61339;DHT22;47213;52.362;4.606;2023-03-05T23:47:47;5.40;99.90
61339;DHT22;47213;52.362;4.606;2023-03-05T23:52:48;5.50;99.90
61339;DHT22;47213;52.362;4.606;2023-03-05T23:57:48;5.60;99.90
